North Springfield, VT (05150)

10:14 PM EDT on August 31, 2015 (GMT -0400)
Gassetts / North Springfield | | Change Station
CLOSE
Current Station
Personal Weather Station
Location: Chester, VT
Elevation: 594 ft
Nearby Weather Stations

Elev 594 ft 43.34 °N, 72.55 °W | Updated 33 seconds ago

Clear
Clear
63.7 °F
Feels Like 63.7 °F
N
0.7
Wind Variable Wind from South
Gusts 0.7 mph

Today
High -- | Low -- °F
--% Chance of Precip.
Yesterday
High -- | Low -- °F
Precip. -- in
6:12 AM 7:27 PM
Waning Gibbous, 92% visible
Pressure 29.97 in
Visibility 8.0 miles
Clouds Clear
Dew Point 63 °F
Humidity 99%
Rainfall in
Snow Depth Not available.
UV 0 out of 12
Pollen 8.50 out of 12
Air Quality Not available.
Flu Activity Not available.
METAR KVSF 010154Z AUTO 00000KT 8SM CLR 19/17 A2997 RMK AO2 SLP147 T01940167
Pressure 29.97 in
Visibility 8.0 miles
Clouds Clear
Dew Point 63 °F
Humidity 99%
Rainfall in
Snow Depth Not available.
UV 0 out of 12
Pollen 8.50 out of 12
Air Quality Not available.
Flu Activity Not available.
METAR KVSF 010154Z AUTO 00000KT 8SM CLR 19/17 A2997 RMK AO2 SLP147 T01940167

10-Day Weather Forecast

×

Almanac

Astronomy

Aug. 31, 2015 Rise Set
Actual Time
Civil Twilight
Nautical Twilight
Astronomical Twilight
Moon
Length of Visible Light
Length of Day
Tomorrow will be .
, % of the Moon is Illuminated

Today's Extremes

State Highs State Lows

Community

WunderPhotos

Upload Photos

1,851,443 photos uploaded!

WunderBlogs® & News

Nearby

Air Quality

  Air Quality AQ Index Pollutant
Not available.

Snow Depth

Station Depth Elevation

Earthquake Activity

City Distance Mag. Time & Date
Minimum magnitude displayed is 2.5.

Coastal Water Temperatures

Place Temperature

Stations

Nearby Weather Stations

Station Location Temp. Windchill Dew Point Humidity Wind Precip. Elev Updated Type